createdAt,value
2018-11-02T00:01:33.454Z,12.60
2018-11-02T00:04:01.060Z,12.10
2018-11-02T00:06:28.716Z,11.68
2018-11-02T00:08:56.316Z,11.75
2018-11-02T00:11:24.696Z,12.65
2018-11-02T00:13:52.675Z,12.07
2018-11-02T00:16:20.894Z,12.60
2018-11-02T00:18:48.454Z,11.57
2018-11-02T00:21:16.016Z,11.53
2018-11-02T00:23:43.574Z,10.70
2018-11-02T00:26:11.150Z,11.28
2018-11-02T00:28:38.766Z,12.05
2018-11-02T00:31:06.345Z,12.25
2018-11-02T00:33:33.992Z,12.18
2018-11-02T00:36:01.581Z,12.58
2018-11-02T00:38:29.189Z,12.95
2018-11-02T00:40:56.783Z,14.23
2018-11-02T00:43:24.370Z,14.03
2018-11-02T00:45:51.972Z,14.13
2018-11-02T00:48:19.567Z,12.68
2018-11-02T00:50:47.121Z,12.68
2018-11-02T00:53:14.731Z,11.75
2018-11-02T00:55:42.306Z,12.43
2018-11-02T00:58:09.875Z,12.80
2018-11-02T01:00:37.431Z,12.82
2018-11-02T01:03:05.181Z,12.45
2018-11-02T01:05:32.737Z,12.68
2018-11-02T01:08:00.352Z,11.70
2018-11-02T01:10:27.959Z,11.63
2018-11-02T01:12:55.528Z,12.70
2018-11-02T01:15:23.102Z,12.35
2018-11-02T01:17:50.999Z,11.78
2018-11-02T01:20:18.573Z,11.50
2018-11-02T01:22:47.185Z,10.85
2018-11-02T01:25:14.772Z,11.95
2018-11-02T01:27:42.307Z,11.60
2018-11-02T01:30:09.900Z,11.83
2018-11-02T01:32:37.480Z,11.10
2018-11-02T01:35:06.296Z,11.95
2018-11-02T01:37:33.853Z,12.30
2018-11-02T01:40:01.434Z,13.05
2018-11-02T01:42:28.973Z,12.33
2018-11-02T01:44:56.689Z,10.60
2018-11-02T01:47:24.230Z,13.08
2018-11-02T01:49:51.825Z,11.10
2018-11-02T01:52:19.373Z,11.15
2018-11-02T01:54:46.952Z,11.60
2018-11-02T01:57:14.511Z,12.25
2018-11-02T01:59:42.049Z,11.18
2018-11-02T02:02:09.571Z,11.40
2018-11-02T02:04:37.116Z,10.55
2018-11-02T02:07:05.050Z,10.18
2018-11-02T02:09:32.622Z,10.03
2018-11-02T02:12:00.209Z,11.33
2018-11-02T02:14:27.757Z,10.43
2018-11-02T02:16:55.308Z,11.93
2018-11-02T02:19:22.936Z,11.35
2018-11-02T02:21:50.457Z,10.63
2018-11-02T02:24:18.051Z,11.15
2018-11-02T02:26:45.577Z,9.95
2018-11-02T02:29:13.114Z,11.20
2018-11-02T02:31:40.701Z,9.88
2018-11-02T02:34:08.249Z,11.80
2018-11-02T02:36:35.756Z,10.10
2018-11-02T02:39:04.377Z,10.55
2018-11-02T02:41:31.936Z,11.12
2018-11-02T02:43:59.447Z,10.03
2018-11-02T02:46:27.064Z,10.55
2018-11-02T02:48:54.613Z,10.50
2018-11-02T02:51:22.162Z,11.48
2018-11-02T02:53:49.722Z,10.98
2018-11-02T02:56:17.270Z,10.98
2018-11-02T02:58:44.784Z,9.95
2018-11-02T03:01:12.345Z,11.00
2018-11-02T03:03:39.853Z,11.28
2018-11-02T03:06:07.424Z,11.50
2018-11-02T03:08:34.919Z,10.90
2018-11-02T03:11:02.679Z,10.95
2018-11-02T03:13:29.995Z,10.28
2018-11-02T03:15:57.577Z,12.40
2018-11-02T03:18:25.189Z,12.07
2018-11-02T03:20:52.682Z,10.93
2018-11-02T03:23:20.234Z,11.08
2018-11-02T03:25:47.809Z,10.43
2018-11-02T03:28:15.334Z,11.60
2018-11-02T03:30:42.845Z,11.70
2018-11-02T03:33:10.372Z,11.70
2018-11-02T03:35:37.944Z,12.25
2018-11-02T03:38:05.474Z,11.53
2018-11-02T03:40:33.062Z,12.20
2018-11-02T03:43:00.615Z,10.25
2018-11-02T03:45:28.176Z,11.05
2018-11-02T03:47:55.729Z,11.12
2018-11-02T03:50:23.295Z,11.70
2018-11-02T03:52:50.832Z,11.57
2018-11-02T03:55:18.376Z,11.75
2018-11-02T03:57:45.951Z,11.48
2018-11-02T04:00:13.702Z,11.57
2018-11-02T04:02:41.293Z,11.18
2018-11-02T04:05:09.728Z,11.30
2018-11-02T04:07:37.263Z,10.25
2018-11-02T04:10:07.238Z,9.93
2018-11-02T04:12:34.775Z,10.20
2018-11-02T04:15:02.486Z,10.70
2018-11-02T04:17:30.120Z,11.20
2018-11-02T04:19:57.704Z,10.08
2018-11-02T04:22:25.240Z,10.82
2018-11-02T04:24:52.848Z,10.45
2018-11-02T04:27:20.423Z,10.38
2018-11-02T04:29:47.919Z,11.22
2018-11-02T04:32:15.478Z,11.15
2018-11-02T04:34:43.017Z,10.90
2018-11-02T04:37:10.568Z,10.85
2018-11-02T04:39:38.142Z,10.43
2018-11-02T04:42:05.656Z,11.45
2018-11-02T04:44:33.216Z,10.05
2018-11-02T04:47:00.751Z,10.55
2018-11-02T04:49:28.318Z,10.15
2018-11-02T04:51:55.925Z,10.72
2018-11-02T04:54:23.474Z,10.00
2018-11-02T04:56:51.041Z,10.90
2018-11-02T04:59:18.563Z,9.85
2018-11-02T05:01:46.114Z,11.33
2018-11-02T05:04:13.645Z,10.55
2018-11-02T05:06:41.247Z,10.65
2018-11-02T05:09:08.905Z,12.15
2018-11-02T05:11:36.597Z,11.55
2018-11-02T05:14:04.436Z,12.68
2018-11-02T05:16:31.942Z,11.40
2018-11-02T05:18:59.475Z,12.70
2018-11-02T05:21:27.134Z,11.80
2018-11-02T05:23:54.594Z,12.18
2018-11-02T05:26:22.175Z,13.05
2018-11-02T05:28:49.723Z,12.18
2018-11-02T05:31:17.253Z,12.05
2018-11-02T05:33:44.856Z,11.80
2018-11-02T05:36:12.428Z,11.40
2018-11-02T05:38:39.956Z,13.58
2018-11-02T05:43:41.607Z,15.15
2018-11-02T05:46:09.189Z,13.75
2018-11-02T05:48:36.668Z,14.47
2018-11-02T05:51:04.354Z,14.70
2018-11-02T05:53:31.897Z,13.18
2018-11-02T05:55:59.420Z,13.40
2018-11-02T05:58:27.021Z,12.95
2018-11-02T06:00:54.602Z,10.68
2018-11-02T06:03:22.148Z,11.68
2018-11-02T06:05:49.676Z,11.33
2018-11-02T06:08:17.237Z,11.10
2018-11-02T06:10:44.794Z,12.15
2018-11-02T06:13:12.379Z,10.38
2018-11-02T06:15:39.956Z,10.53
2018-11-02T06:18:07.494Z,10.60
2018-11-02T06:20:35.009Z,10.15
2018-11-02T06:23:02.560Z,11.78
2018-11-02T06:25:30.130Z,10.55
2018-11-02T06:27:57.695Z,11.97
2018-11-02T06:30:25.312Z,10.43
2018-11-02T06:32:53.009Z,11.30
2018-11-02T06:35:20.476Z,12.73
2018-11-02T06:37:48.066Z,11.93
2018-11-02T06:40:15.665Z,12.55
2018-11-02T06:42:43.245Z,12.30
2018-11-02T06:45:11.055Z,11.88
2018-11-02T06:47:38.757Z,12.25
2018-11-02T06:50:06.472Z,11.75
2018-11-02T06:52:34.004Z,11.97
2018-11-02T06:55:02.216Z,12.33
2018-11-02T06:57:31.594Z,13.35
2018-11-02T06:59:59.410Z,13.48
2018-11-02T07:02:26.822Z,13.58
2018-11-02T07:04:54.509Z,13.03
2018-11-02T07:07:22.163Z,9.95
2018-11-02T07:09:49.643Z,9.80
2018-11-02T07:12:17.207Z,10.70
2018-11-02T07:14:45.413Z,10.55
2018-11-02T07:17:12.937Z,10.65
2018-11-02T07:19:40.496Z,9.93
2018-11-02T07:22:08.039Z,9.78
2018-11-02T07:24:35.780Z,11.18
2018-11-02T07:27:03.330Z,9.33
2018-11-02T07:29:30.907Z,10.55
2018-11-02T07:31:58.467Z,9.25
2018-11-02T07:34:26.087Z,12.30
2018-11-02T07:36:53.617Z,10.68
2018-11-02T07:39:21.169Z,11.05
2018-11-02T07:41:48.770Z,11.40
2018-11-02T07:44:16.322Z,11.25
2018-11-02T07:46:43.881Z,11.55
2018-11-02T07:49:11.478Z,12.45
2018-11-02T07:51:39.218Z,12.07
2018-11-02T07:54:06.811Z,12.37
2018-11-02T07:56:34.397Z,12.53
2018-11-02T07:59:02.030Z,12.58
2018-11-02T08:01:29.581Z,11.50
2018-11-02T08:03:57.198Z,12.25
2018-11-02T08:06:24.801Z,13.35
2018-11-02T08:08:52.348Z,12.65
2018-11-02T08:11:19.990Z,12.65
2018-11-02T08:13:47.559Z,13.08
2018-11-02T08:16:15.141Z,13.40
2018-11-02T08:18:42.722Z,14.18
2018-11-02T08:21:10.448Z,13.22
2018-11-02T08:23:38.065Z,13.22
2018-11-02T08:26:05.698Z,13.00
2018-11-02T08:28:33.299Z,12.43
2018-11-02T08:31:00.932Z,13.00
2018-11-02T08:33:28.521Z,13.15
2018-11-02T08:35:56.176Z,13.15
2018-11-02T08:38:23.775Z,14.38
2018-11-02T08:40:51.370Z,12.60
2018-11-02T08:43:18.945Z,13.35
2018-11-02T08:45:46.548Z,13.88
2018-11-02T08:48:14.129Z,14.38
2018-11-02T08:50:41.719Z,13.20
2018-11-02T08:53:09.250Z,12.70
2018-11-02T08:55:36.804Z,13.83
2018-11-02T08:58:04.544Z,14.65
2018-11-02T09:00:31.992Z,14.30
2018-11-02T09:02:59.558Z,14.58
2018-11-02T09:05:27.159Z,12.85
2018-11-02T09:07:54.796Z,13.60
2018-11-02T09:10:22.510Z,14.50
2018-11-02T09:12:50.129Z,13.88
2018-11-02T09:15:17.703Z,13.28
2018-11-02T09:17:45.305Z,14.73
2018-11-02T09:20:12.916Z,13.22
2018-11-02T09:22:40.491Z,14.38
2018-11-02T09:25:08.901Z,13.72
2018-11-02T09:27:36.644Z,14.33
2018-11-02T09:30:07.011Z,13.58
2018-11-02T09:32:34.727Z,16.15
2018-11-02T09:35:02.386Z,14.87
2018-11-02T09:37:30.034Z,15.32
2018-11-02T09:39:57.590Z,15.35
2018-11-02T09:42:25.394Z,14.45
2018-11-02T09:44:52.959Z,14.85
2018-11-02T09:47:20.590Z,15.03
2018-11-02T09:49:48.325Z,15.20
2018-11-02T09:52:16.990Z,14.63
2018-11-02T09:54:45.460Z,16.70
2018-11-02T09:57:13.157Z,17.80
2018-11-02T09:59:40.836Z,17.32
2018-11-02T10:02:08.633Z,15.68
2018-11-02T10:04:36.182Z,16.50
2018-11-02T10:07:03.854Z,17.52
2018-11-02T10:09:31.499Z,17.45
2018-11-02T10:11:59.134Z,16.00
2018-11-02T10:14:26.789Z,17.67
2018-11-02T10:16:54.443Z,17.25
2018-11-02T10:19:22.136Z,16.27
2018-11-02T10:21:49.748Z,17.25
2018-11-02T10:24:17.430Z,16.60
2018-11-02T10:26:45.183Z,16.85
2018-11-02T10:29:12.972Z,16.40
2018-11-02T10:31:40.701Z,14.73
2018-11-02T10:34:08.346Z,15.83
2018-11-02T10:36:36.909Z,14.70
2018-11-02T10:39:08.366Z,14.40
2018-11-02T10:41:41.986Z,14.10
2018-11-02T10:44:10.107Z,14.73
2018-11-02T10:46:37.957Z,15.10
2018-11-02T10:49:05.799Z,13.32
2018-11-02T10:51:33.412Z,14.75
2018-11-02T10:54:01.042Z,15.60
2018-11-02T10:56:28.668Z,14.28
2018-11-02T10:58:56.308Z,13.90
2018-11-02T11:01:29.592Z,14.10
2018-11-02T11:03:57.208Z,14.50
2018-11-02T11:06:24.822Z,14.60
2018-11-02T11:08:52.411Z,14.93
2018-11-02T11:11:20.039Z,13.85
2018-11-02T11:13:48.042Z,12.18
2018-11-02T11:16:15.404Z,13.30
2018-11-02T11:21:17.323Z,12.10
2018-11-02T11:23:44.962Z,11.73
2018-11-02T11:26:12.670Z,12.05
2018-11-02T11:28:40.287Z,11.65
2018-11-02T11:31:07.898Z,10.63
2018-11-02T11:33:35.528Z,11.57
2018-11-02T11:36:03.248Z,10.25
2018-11-02T11:38:33.082Z,10.75
2018-11-02T11:41:00.746Z,10.20
2018-11-02T11:43:28.504Z,11.22
2018-11-02T11:45:56.064Z,10.80
2018-11-02T11:48:23.723Z,10.60
2018-11-02T11:50:51.343Z,10.43
2018-11-02T11:53:18.963Z,10.17
2018-11-02T11:55:46.686Z,8.98
2018-11-02T11:58:14.264Z,9.37
2018-11-02T12:00:41.854Z,8.90
2018-11-02T12:03:09.505Z,10.40
2018-11-02T12:05:37.203Z,9.70
2018-11-02T12:08:04.948Z,8.70
2018-11-02T12:10:32.708Z,7.70
2018-11-02T12:13:00.307Z,8.20
2018-11-02T12:15:27.950Z,6.57
2018-11-02T12:17:55.612Z,5.27
2018-11-02T12:20:25.867Z,4.97
2018-11-02T12:22:55.929Z,5.10
2018-11-02T12:25:23.628Z,4.70
2018-11-02T12:27:51.316Z,4.10
2018-11-02T12:30:19.258Z,3.93
2018-11-02T12:32:46.954Z,4.30
2018-11-02T12:35:15.650Z,4.63
2018-11-02T12:37:43.292Z,3.90
2018-11-02T12:40:15.546Z,4.13
2018-11-02T12:42:43.668Z,5.60
2018-11-02T12:45:12.568Z,5.53
2018-11-02T12:47:40.605Z,6.13
2018-11-02T12:50:10.934Z,5.60
2018-11-02T12:52:38.486Z,6.40
2018-11-02T12:55:06.170Z,5.73
2018-11-02T12:57:33.852Z,5.20
2018-11-02T13:00:01.456Z,4.37
2018-11-02T13:02:29.086Z,4.00
2018-11-02T13:04:56.682Z,3.97
2018-11-02T13:07:24.279Z,4.70
2018-11-02T13:09:51.997Z,4.80
2018-11-02T13:12:19.696Z,5.33
2018-11-02T13:14:47.328Z,4.60
2018-11-02T13:17:14.981Z,4.50
2018-11-02T13:19:42.696Z,4.57
2018-11-02T13:22:10.334Z,4.60
2018-11-02T13:24:37.995Z,5.67
2018-11-02T13:27:05.713Z,5.03
2018-11-02T13:29:33.369Z,6.00
2018-11-02T13:32:01.085Z,5.92
2018-11-02T13:34:28.689Z,6.77
2018-11-02T13:36:56.407Z,6.00
2018-11-02T13:39:24.067Z,5.50
2018-11-02T13:41:51.734Z,5.55
2018-11-02T13:44:19.365Z,6.20
2018-11-02T13:46:46.989Z,6.63
2018-11-02T13:49:14.583Z,6.37
2018-11-02T13:51:42.283Z,5.90
2018-11-02T13:54:09.891Z,6.33
2018-11-02T13:56:37.578Z,5.93
2018-11-02T13:59:05.329Z,6.63
2018-11-02T14:01:32.942Z,6.93
2018-11-02T14:04:00.595Z,6.50
2018-11-02T14:06:28.263Z,6.90
2018-11-02T14:08:55.898Z,6.75
2018-11-02T14:11:23.505Z,6.78
2018-11-02T14:13:51.190Z,7.07
2018-11-02T14:16:18.867Z,7.20
2018-11-02T14:18:46.491Z,7.30
2018-11-02T14:21:14.198Z,7.83
2018-11-02T14:23:41.870Z,7.70
2018-11-02T14:26:09.540Z,8.03
2018-11-02T14:28:37.686Z,8.53
2018-11-02T14:31:05.814Z,7.50
2018-11-02T14:33:33.453Z,8.13
2018-11-02T14:36:01.107Z,8.10
2018-11-02T14:38:28.725Z,8.00
2018-11-02T14:40:56.489Z,8.25
2018-11-02T14:43:24.026Z,7.30
2018-11-02T14:45:51.760Z,8.70
2018-11-02T14:48:19.426Z,8.95
2018-11-02T14:50:47.133Z,7.58
2018-11-02T14:53:14.735Z,7.10
2018-11-02T14:55:42.335Z,7.90
2018-11-02T14:58:09.970Z,8.20
2018-11-02T15:00:37.639Z,8.40
2018-11-02T15:03:05.318Z,8.65
2018-11-02T15:05:32.995Z,9.10
2018-11-02T15:08:00.600Z,8.43
2018-11-02T15:10:28.287Z,7.67
2018-11-02T15:12:55.892Z,8.23
2018-11-02T15:15:23.500Z,8.88
2018-11-02T15:17:51.144Z,9.38
2018-11-02T15:20:18.726Z,9.35
2018-11-02T15:22:46.351Z,8.90
2018-11-02T15:25:13.981Z,9.18
2018-11-02T15:27:41.630Z,9.48
2018-11-02T15:30:10.893Z,8.53
2018-11-02T15:32:38.579Z,8.03
2018-11-02T15:35:06.980Z,7.45
2018-11-02T15:37:34.611Z,7.50
2018-11-02T15:40:02.221Z,7.65
2018-11-02T15:42:29.857Z,7.08
2018-11-02T15:44:57.423Z,8.15
2018-11-02T15:47:25.044Z,7.28
2018-11-02T15:49:52.714Z,7.78
2018-11-02T15:52:20.360Z,6.60
2018-11-02T15:54:47.976Z,6.10
2018-11-02T15:57:15.608Z,6.58
2018-11-02T15:59:43.215Z,6.62
2018-11-02T16:02:10.831Z,6.53
2018-11-02T16:04:38.455Z,14.70
2018-11-02T16:07:06.116Z,8.98
2018-11-02T16:09:33.718Z,6.33
2018-11-02T16:12:01.319Z,5.70
2018-11-02T16:14:29.055Z,5.87
2018-11-02T16:16:56.641Z,5.87
2018-11-02T16:19:24.496Z,5.72
2018-11-02T16:21:52.067Z,5.75
2018-11-02T16:24:19.710Z,5.20
2018-11-02T16:26:47.454Z,5.47
2018-11-02T16:29:15.123Z,7.97
2018-11-02T16:31:42.783Z,8.75
2018-11-02T16:34:10.513Z,8.10
2018-11-02T16:36:38.020Z,8.35
2018-11-02T16:39:09.357Z,8.75
2018-11-02T16:41:37.013Z,9.53
2018-11-02T16:44:04.836Z,9.50
2018-11-02T16:46:32.400Z,14.03
2018-11-02T16:49:00.104Z,9.25
2018-11-02T16:51:28.018Z,8.00
2018-11-02T16:53:55.657Z,6.17
2018-11-02T16:56:23.334Z,5.80
2018-11-02T16:58:51.005Z,6.10
2018-11-02T17:01:18.642Z,6.08
2018-11-02T17:03:46.285Z,6.12
2018-11-02T17:06:14.080Z,5.70
2018-11-02T17:08:41.733Z,6.47
2018-11-02T17:11:09.442Z,6.45
2018-11-02T17:13:37.055Z,6.55
2018-11-02T17:16:04.864Z,6.35
2018-11-02T17:18:33.057Z,7.15
2018-11-02T17:21:01.128Z,7.10
2018-11-02T17:23:28.849Z,6.72
2018-11-02T17:25:56.520Z,6.87
2018-11-02T17:28:24.184Z,7.22
2018-11-02T17:30:51.797Z,7.37
2018-11-02T17:33:19.704Z,6.40
2018-11-02T17:35:47.447Z,6.87
2018-11-02T17:38:15.097Z,6.28
2018-11-02T17:40:42.730Z,6.90
2018-11-02T17:43:10.415Z,5.85
2018-11-02T17:45:38.098Z,7.08
2018-11-02T17:48:05.816Z,7.65
2018-11-02T17:50:33.525Z,8.18
2018-11-02T17:53:01.204Z,7.97
2018-11-02T17:55:28.937Z,7.97
2018-11-02T17:57:56.676Z,7.50
2018-11-02T18:00:24.421Z,7.67
2018-11-02T18:02:52.065Z,9.15
2018-11-02T18:05:19.760Z,8.80
2018-11-02T18:07:48.096Z,8.23
2018-11-02T18:10:17.221Z,8.98
2018-11-02T18:12:44.861Z,9.48
2018-11-02T18:15:13.186Z,9.18
2018-11-02T18:17:40.947Z,9.00
2018-11-02T18:20:11.471Z,8.93
2018-11-02T18:22:39.185Z,9.35
2018-11-02T18:25:07.401Z,10.05
2018-11-02T18:27:35.047Z,9.25
2018-11-02T18:30:02.768Z,8.68
2018-11-02T18:32:30.391Z,8.63
2018-11-02T18:34:58.250Z,7.75
2018-11-02T18:37:25.791Z,7.60
2018-11-02T18:39:53.442Z,7.95
2018-11-02T18:42:21.155Z,6.97
2018-11-02T18:44:48.695Z,8.15
2018-11-02T18:47:16.310Z,9.10
2018-11-02T18:49:43.871Z,7.75
2018-11-02T18:52:11.470Z,8.05
2018-11-02T18:54:39.114Z,8.13
2018-11-02T18:57:06.679Z,7.22
2018-11-02T18:59:34.364Z,7.03
2018-11-02T19:02:02.072Z,6.62
2018-11-02T19:04:29.652Z,6.30
2018-11-02T19:06:57.227Z,7.08
2018-11-02T19:09:24.988Z,6.60
2018-11-02T19:11:52.704Z,6.30
2018-11-02T19:14:20.303Z,6.53
2018-11-02T19:16:47.978Z,6.45
2018-11-02T19:19:15.580Z,6.05
2018-11-02T19:21:43.431Z,6.67
2018-11-02T19:24:10.976Z,6.22
2018-11-02T19:26:38.613Z,6.87
2018-11-02T19:29:06.438Z,6.92
2018-11-02T19:31:34.058Z,6.15
2018-11-02T19:34:01.831Z,6.80
2018-11-02T19:36:29.422Z,6.55
2018-11-02T19:38:57.055Z,6.10
2018-11-02T19:41:24.771Z,5.62
2018-11-02T19:43:52.444Z,6.60
2018-11-02T19:46:20.132Z,6.05
2018-11-02T19:48:47.841Z,6.00
2018-11-02T19:51:15.542Z,6.08
2018-11-02T19:53:43.298Z,6.50
2018-11-02T19:56:10.875Z,6.45
2018-11-02T19:58:39.664Z,5.33
2018-11-02T20:01:07.522Z,6.17
2018-11-02T20:03:35.216Z,6.50
2018-11-02T20:06:02.897Z,6.40
2018-11-02T20:08:30.561Z,6.33
2018-11-02T20:10:58.282Z,6.60
2018-11-02T20:13:26.137Z,5.50
2018-11-02T20:15:54.189Z,5.40
2018-11-02T20:18:22.079Z,6.12
2018-11-02T20:20:49.796Z,6.37
2018-11-02T20:23:17.526Z,5.17
2018-11-02T20:25:45.272Z,6.15
2018-11-02T20:28:13.031Z,5.53
2018-11-02T20:30:40.724Z,5.00
2018-11-02T20:33:08.468Z,5.92
2018-11-02T20:35:36.122Z,5.50
2018-11-02T20:38:05.053Z,5.75
2018-11-02T20:40:32.747Z,6.10
2018-11-02T20:43:00.416Z,5.80
2018-11-02T20:45:28.146Z,6.42
2018-11-02T20:47:55.954Z,5.90
2018-11-02T20:50:24.950Z,6.65
2018-11-02T20:52:53.741Z,5.87
2018-11-02T20:55:21.481Z,6.08
2018-11-02T20:57:49.329Z,6.80
2018-11-02T21:00:18.463Z,6.67
2018-11-02T21:02:46.372Z,6.55
2018-11-02T21:05:15.296Z,6.80
2018-11-02T21:07:43.466Z,6.90
2018-11-02T21:10:12.683Z,7.10
2018-11-02T21:12:40.562Z,6.65
2018-11-02T21:15:11.856Z,7.03
2018-11-02T21:17:39.672Z,7.37
2018-11-02T21:20:10.094Z,7.60
2018-11-02T21:22:38.021Z,7.55
2018-11-02T21:25:07.057Z,6.80
2018-11-02T21:27:34.758Z,8.35
2018-11-02T21:30:02.650Z,7.95
2018-11-02T21:32:30.405Z,6.80
2018-11-02T21:34:58.132Z,7.75
2018-11-02T21:37:25.815Z,6.53
2018-11-02T21:39:53.485Z,6.70
2018-11-02T21:42:21.121Z,8.43
2018-11-02T21:44:48.807Z,8.35
2018-11-02T21:47:16.528Z,8.65
2018-11-02T21:49:44.095Z,8.75
2018-11-02T21:52:11.843Z,8.85
2018-11-02T21:54:39.566Z,8.10
2018-11-02T21:57:07.126Z,8.05
2018-11-02T21:59:34.829Z,7.12
2018-11-02T22:02:02.533Z,7.25
2018-11-02T22:04:30.183Z,6.95
2018-11-02T22:06:57.844Z,7.97
2018-11-02T22:09:25.511Z,7.12
2018-11-02T22:11:53.164Z,7.35
2018-11-02T22:14:20.807Z,7.70
2018-11-02T22:16:48.451Z,7.45
2018-11-02T22:19:16.171Z,8.50
2018-11-02T22:21:43.748Z,7.58
2018-11-02T22:24:11.434Z,7.87
2018-11-02T22:26:39.038Z,7.42
2018-11-02T22:29:06.700Z,7.33
2018-11-02T22:31:34.336Z,6.87
2018-11-02T22:34:01.970Z,7.00
2018-11-02T22:36:29.615Z,6.85
2018-11-02T22:38:57.267Z,8.53
2018-11-02T22:41:26.254Z,7.25
2018-11-02T22:43:53.919Z,7.72
2018-11-02T22:46:21.590Z,7.50
2018-11-02T22:48:49.274Z,7.87
2018-11-02T22:51:16.978Z,6.80
2018-11-02T22:53:44.584Z,8.13
2018-11-02T22:56:12.287Z,7.47
2018-11-02T22:58:39.989Z,7.15
2018-11-02T23:01:13.279Z,7.28
2018-11-02T23:03:40.972Z,7.53
2018-11-02T23:06:08.583Z,7.25
2018-11-02T23:08:36.206Z,7.50
2018-11-02T23:11:03.901Z,7.15
2018-11-02T23:13:31.601Z,7.85
2018-11-02T23:15:59.228Z,7.80
2018-11-02T23:18:26.847Z,7.92
2018-11-02T23:20:54.400Z,7.50
2018-11-02T23:23:22.050Z,7.30
2018-11-02T23:25:49.707Z,7.00
2018-11-02T23:28:17.382Z,7.65
2018-11-02T23:30:44.984Z,7.90
2018-11-02T23:33:12.630Z,7.62
2018-11-02T23:35:40.241Z,8.70
2018-11-02T23:38:07.913Z,8.13
2018-11-02T23:40:35.486Z,7.10
2018-11-02T23:43:03.084Z,8.00
2018-11-02T23:45:30.696Z,6.70
2018-11-02T23:48:03.824Z,8.10
2018-11-02T23:50:31.450Z,7.10
2018-11-02T23:52:59.063Z,7.20
2018-11-02T23:55:26.657Z,7.55
2018-11-02T23:57:54.410Z,8.03
